Time;durP1;ratioP1;P1;durP2;ratioP2;P2;SDS_P1;SDS_P2;PMS_P1;PMS_P2;Temp;Humidity;BMP_temperature;BMP_pressure;BME280_temperature;BME280_humidity;BME280_pressure;Samples;Min_cycle;Max_cycle;Signal;HPM_P1;HPM_P2
2023/12/09 00:00:00;;;;;;;;;;;;;;;20.79;41.19;100784.69;2069819;28;2389;-66
2023/12/09 00:01:02;;;;;;;;;;;;;;;20.78;41.36;100786.84;2070868;28;5996;-66
2023/12/09 00:02:03;;;;;;;;;;;;;;;20.78;41.16;100783.22;2073738;28;1620;-67
2023/12/09 00:03:05;;;;;;;;;;;;;;;20.78;41.26;100781.09;2073960;28;2002;-66
2023/12/09 00:04:07;;;;;;;;;;;;;;;20.77;41.42;100785.34;2069751;28;2143;-66
2023/12/09 00:05:09;;;;;;;;;;;;;;;20.77;41.29;100784.63;2070954;28;1826;-66
2023/12/09 00:06:10;;;;;;;;;;;;;;;20.77;41.23;100778.84;2073972;28;2113;-66
2023/12/09 00:07:12;;;;;;;;;;;;;;;20.78;41.31;100783.97;2072623;28;1774;-66
2023/12/09 00:08:13;;;;;;;;;;;;;;;20.78;41.21;100786.84;2071378;28;1775;-66
2023/12/09 00:09:15;;;;;;;;;;;;;;;20.78;41.31;100783.97;2073834;28;1816;-66
2023/12/09 00:10:17;;;;;;;;;;;;;;;20.79;41.34;100793.34;2070898;28;1906;-66
2023/12/09 00:11:18;;;;;;;;;;;;;;;20.77;41.37;100791.09;2068987;28;2015;-66
2023/12/09 00:12:20;;;;;;;;;;;;;;;20.79;41.55;100793.34;2069745;28;1563;-66
2023/12/09 00:13:21;;;;;;;;;;;;;;;20.78;41.45;100786.09;2069805;28;2114;-66
2023/12/09 00:14:23;;;;;;;;;;;;;;;20.78;41.27;100791.88;2070898;28;2099;-66
2023/12/09 00:15:24;;;;;;;;;;;;;;;20.76;41.24;100786.75;2070820;28;1647;-66
2023/12/09 00:16:26;;;;;;;;;;;;;;;20.76;41.48;100791.78;2068532;28;1876;-66
2023/12/09 00:17:27;;;;;;;;;;;;;;;20.76;41.53;100791.78;2069765;28;2032;-66
2023/12/09 00:18:28;;;;;;;;;;;;;;;20.75;41.34;100775.88;2074232;28;1770;-66
2023/12/09 00:19:30;;;;;;;;;;;;;;;20.75;41.33;100784.53;2072435;28;1497;-65
2023/12/09 00:20:32;;;;;;;;;;;;;;;20.74;41.52;100791.69;2071809;28;2149;-67
2023/12/09 00:21:33;;;;;;;;;;;;;;;20.72;41.46;100783.69;2070171;28;1469;-66
2023/12/09 00:22:34;;;;;;;;;;;;;;;20.73;41.31;100785.19;2071124;28;1811;-65
2023/12/09 00:23:36;;;;;;;;;;;;;;;20.73;41.47;100775.78;2072994;28;2091;-66
2023/12/09 00:24:48;;;;;;;;;;;;;;;20.74;41.47;100783.78;2069615;28;2059;-66
2023/12/09 00:25:49;;;;;;;;;;;;;;;20.73;41.40;100784.44;2072912;28;2245;-66
2023/12/09 00:26:51;;;;;;;;;;;;;;;20.73;41.50;100790.94;2071524;28;1879;-66
2023/12/09 00:27:52;;;;;;;;;;;;;;;20.73;41.28;100790.94;2073695;28;1675;-66
2023/12/09 00:28:54;;;;;;;;;;;;;;;20.73;41.38;100793.81;2074134;28;1826;-66
2023/12/09 00:29:55;;;;;;;;;;;;;;;20.72;41.33;100798.09;2071157;28;2150;-67
2023/12/09 00:30:57;;;;;;;;;;;;;;;20.72;41.23;100798.09;2070045;28;5989;-66
2023/12/09 00:31:58;;;;;;;;;;;;;;;20.71;41.30;100800.22;2070426;28;2026;-66
2023/12/09 00:33:00;;;;;;;;;;;;;;;20.73;41.41;100801.69;2072055;28;1813;-66
2023/12/09 00:34:02;;;;;;;;;;;;;;;20.72;41.34;100806.72;2071866;28;2082;-66
2023/12/09 00:35:03;;;;;;;;;;;;;;;20.73;41.56;100807.44;2072664;28;1616;-67
2023/12/09 00:36:05;;;;;;;;;;;;;;;20.73;41.38;100799.59;2071157;28;2012;-66
2023/12/09 00:37:06;;;;;;;;;;;;;;;20.73;41.27;100802.47;2070524;28;1658;-66
2023/12/09 00:38:08;;;;;;;;;;;;;;;20.74;41.38;100803.94;2073081;28;1810;-66
2023/12/09 00:39:09;;;;;;;;;;;;;;;20.74;41.20;100798.19;2074690;28;1587;-66
2023/12/09 00:40:11;;;;;;;;;;;;;;;20.76;41.36;100806.91;2070611;28;2013;-66
2023/12/09 00:41:13;;;;;;;;;;;;;;;20.76;41.36;100806.16;2073819;28;1686;-67
2023/12/09 00:42:14;;;;;;;;;;;;;;;20.76;41.27;100806.91;2072123;28;2367;-66
2023/12/09 00:43:16;;;;;;;;;;;;;;;20.76;41.28;100803.28;2073954;28;1571;-66
2023/12/09 00:44:20;;;;;;;;;;;;;;;20.76;41.28;100809.78;2072242;28;1555;-66
2023/12/09 00:45:22;;;;;;;;;;;;;;;20.76;41.47;100801.13;2072449;28;1660;-66
2023/12/09 00:46:23;;;;;;;;;;;;;;;20.76;41.30;100794.66;2071595;28;2107;-66
2023/12/09 00:47:25;;;;;;;;;;;;;;;20.77;41.30;100807.63;2074143;28;1488;-66
2023/12/09 00:48:26;;;;;;;;;;;;;;;20.76;41.23;100804.03;2073781;28;1869;-67
2023/12/09 00:49:28;;;;;;;;;;;;;;;20.76;41.27;100797.53;2072657;28;2018;-66
2023/12/09 00:50:29;;;;;;;;;;;;;;;20.75;41.26;100802.53;2072021;28;1918;-66
2023/12/09 00:51:31;;;;;;;;;;;;;;;20.76;41.37;100788.91;2071718;28;1592;-66
2023/12/09 00:52:32;;;;;;;;;;;;;;;20.74;41.50;100798.19;2069167;28;2133;-66
2023/12/09 00:53:34;;;;;;;;;;;;;;;20.74;41.35;100803.19;2071291;28;1902;-66
2023/12/09 00:54:35;;;;;;;;;;;;;;;20.75;41.47;100805.41;2073006;28;2128;-66
2023/12/09 00:55:36;;;;;;;;;;;;;;;20.74;41.36;100809.69;2071358;28;1460;-66
2023/12/09 00:56:38;;;;;;;;;;;;;;;20.72;41.59;100806.72;2070187;28;2110;-66
2023/12/09 00:57:39;;;;;;;;;;;;;;;20.74;41.32;100812.56;2068314;28;1651;-66
2023/12/09 00:58:41;;;;;;;;;;;;;;;20.73;41.27;100813.97;2070453;28;1852;-66
2023/12/09 00:59:42;;;;;;;;;;;;;;;20.74;41.41;100814.69;2072351;28;1656;-66
2023/12/09 01:00:44;;;;;;;;;;;;;;;20.73;41.41;100807.44;2071188;28;6116;-66
2023/12/09 01:01:45;;;;;;;;;;;;;;;20.71;41.48;100811.00;2071724;28;2203;-66
2023/12/09 01:02:47;;;;;;;;;;;;;;;20.71;41.45;100808.84;2068785;28;2093;-66
2023/12/09 01:03:48;;;;;;;;;;;;;;;20.71;41.42;100808.84;2068011;28;1596;-66
2023/12/09 01:04:50;;;;;;;;;;;;;;;20.71;41.36;100808.13;2072880;28;1579;-66
2023/12/09 01:05:51;;;;;;;;;;;;;;;20.71;41.58;100816.75;2072409;28;1743;-65
2023/12/09 01:06:53;;;;;;;;;;;;;;;20.70;41.36;100815.25;2072056;28;1865;-66
2023/12/09 01:07:54;;;;;;;;;;;;;;;20.69;41.33;100808.03;2068119;28;1591;-66
2023/12/09 01:08:56;;;;;;;;;;;;;;;20.68;41.41;100818.81;2069428;28;2114;-66
2023/12/09 01:09:57;;;;;;;;;;;;;;;20.70;41.43;100821.75;2069547;28;2078;-66
2023/12/09 01:10:59;;;;;;;;;;;;;;;20.68;41.52;100818.03;2070812;28;1980;-65
2023/12/09 01:12:00;;;;;;;;;;;;;;;20.68;41.34;100815.94;2070086;28;1635;-66
2023/12/09 01:13:02;;;;;;;;;;;;;;;20.68;41.52;100818.03;2072212;28;2426;-66
2023/12/09 01:14:03;;;;;;;;;;;;;;;20.69;41.38;100813.78;2071546;28;2020;-66
2023/12/09 01:15:05;;;;;;;;;;;;;;;20.69;41.42;100816.66;2070726;28;1632;-66
2023/12/09 01:16:07;;;;;;;;;;;;;;;20.69;41.46;100810.91;2069684;28;2284;-66
2023/12/09 01:17:08;;;;;;;;;;;;;;;20.67;41.48;100816.56;2071511;28;1508;-66
2023/12/09 01:18:10;;;;;;;;;;;;;;;20.69;41.34;100819.53;2072073;28;1702;-67
2023/12/09 01:19:12;;;;;;;;;;;;;;;20.70;41.42;100815.25;2071519;28;1615;-66
2023/12/09 01:20:14;;;;;;;;;;;;;;;20.71;41.50;100816.75;2069999;28;1917;-67
2023/12/09 01:21:15;;;;;;;;;;;;;;;20.71;41.29;100820.38;2071419;28;1655;-66
2023/12/09 01:22:17;;;;;;;;;;;;;;;20.71;41.41;100817.50;2070748;28;2077;-66
2023/12/09 01:23:19;;;;;;;;;;;;;;;20.72;41.46;100818.22;2069398;28;1600;-66
2023/12/09 01:24:20;;;;;;;;;;;;;;;20.72;41.52;100823.97;2072287;28;2008;-66
2023/12/09 01:25:21;;;;;;;;;;;;;;;20.73;41.34;100818.97;2070695;28;2150;-66
2023/12/09 01:26:23;;;;;;;;;;;;;;;20.73;41.27;100825.47;2070360;28;1706;-66
2023/12/09 01:27:24;;;;;;;;;;;;;;;20.72;41.33;100823.97;2069403;28;1655;-66
2023/12/09 01:28:26;;;;;;;;;;;;;;;20.73;41.28;100819.72;2070211;28;2280;-66
2023/12/09 01:29:27;;;;;;;;;;;;;;;20.74;41.30;100820.47;2069818;28;1838;-66
2023/12/09 01:30:28;;;;;;;;;;;;;;;20.74;41.28;100826.22;2069233;28;6056;-66
2023/12/09 01:31:30;;;;;;;;;;;;;;;20.73;41.42;100825.47;2072605;28;1806;-66
2023/12/09 01:32:31;;;;;;;;;;;;;;;20.71;41.30;100822.50;2071904;28;2183;-66
2023/12/09 01:33:33;;;;;;;;;;;;;;;20.70;41.40;100823.88;2071065;28;2171;-66
2023/12/09 01:34:38;;;;;;;;;;;;;;;20.69;41.41;100819.53;2068747;28;1910;-66
2023/12/09 01:35:40;;;;;;;;;;;;;;;20.69;41.39;100816.66;2072902;28;1794;-66
2023/12/09 01:36:41;;;;;;;;;;;;;;;20.69;41.41;100825.28;2070544;28;2108;-66
2023/12/09 01:37:43;;;;;;;;;;;;;;;20.68;41.46;100818.03;2070471;28;2142;-66
2023/12/09 01:38:44;;;;;;;;;;;;;;;20.67;41.51;100814.44;2070001;28;2121;-66
2023/12/09 01:39:46;;;;;;;;;;;;;;;20.67;41.45;100817.31;2071842;28;1729;-66
2023/12/09 01:40:54;;;;;;;;;;;;;;;20.68;41.43;100818.03;2069572;28;1576;-65
2023/12/09 01:41:56;;;;;;;;;;;;;;;20.68;41.38;100818.03;2069818;28;1814;-65
2023/12/09 01:42:57;;;;;;;;;;;;;;;20.66;41.54;100812.94;2065342;28;1928;-66
2023/12/09 01:43:58;;;;;;;;;;;;;;;20.65;41.37;100808.56;2068157;28;1635;-66
2023/12/09 01:45:00;;;;;;;;;;;;;;;20.65;41.48;100805.69;2069901;28;1635;-66
2023/12/09 01:46:04;;;;;;;;;;;;;;;20.64;41.51;100807.09;2071323;28;1836;-66
2023/12/09 01:47:06;;;;;;;;;;;;;;;20.65;41.45;100810.72;2070434;28;2055;-66
2023/12/09 01:48:08;;;;;;;;;;;;;;;20.64;41.55;100817.88;2067802;28;2440;-67
2023/12/09 01:49:10;;;;;;;;;;;;;;;20.64;41.36;100818.63;2069212;28;1826;-66
2023/12/09 01:50:11;;;;;;;;;;;;;;;20.64;41.36;100809.97;2070785;28;1643;-66
2023/12/09 01:51:13;;;;;;;;;;;;;;;20.64;41.42;100812.13;2068992;28;2099;-66
2023/12/09 01:52:15;;;;;;;;;;;;;;;20.64;41.34;100806.38;2071037;28;1822;-66
2023/12/09 01:53:16;;;;;;;;;;;;;;;20.63;41.46;100804.88;2069846;28;2136;-66
2023/12/09 01:54:18;;;;;;;;;;;;;;;20.64;41.37;100812.13;2068220;28;1738;-66
2023/12/09 01:55:19;;;;;;;;;;;;;;;20.65;41.37;100813.59;2068101;28;2103;-66
2023/12/09 01:56:21;;;;;;;;;;;;;;;20.65;41.39;100807.84;2068043;28;1806;-65
2023/12/09 01:57:22;;;;;;;;;;;;;;;20.65;41.40;100810.72;2067757;28;1728;-66
2023/12/09 01:58:24;;;;;;;;;;;;;;;20.65;41.50;100804.97;2071613;28;1658;-66
2023/12/09 01:59:25;;;;;;;;;;;;;;;20.65;41.37;100805.69;2066915;28;1818;-66
2023/12/09 02:00:26;;;;;;;;;;;;;;;20.65;41.37;100802.09;2070548;28;6148;-66
2023/12/09 02:01:28;;;;;;;;;;;;;;;20.66;41.32;100809.31;2067955;28;1596;-66
2023/12/09 02:02:30;;;;;;;;;;;;;;;20.66;41.34;100809.31;2069245;28;2176;-66
2023/12/09 02:03:32;;;;;;;;;;;;;;;20.66;41.32;100806.44;2068231;28;1794;-66
2023/12/09 02:04:34;;;;;;;;;;;;;;;20.67;41.44;100810.81;2071009;28;2098;-66
2023/12/09 02:05:35;;;;;;;;;;;;;;;20.66;41.33;100804.31;2072184;28;2537;-66
2023/12/09 02:06:37;;;;;;;;;;;;;;;20.66;41.29;100804.31;2071005;28;2148;-66
2023/12/09 02:07:38;;;;;;;;;;;;;;;20.66;41.34;100803.56;2068861;28;2126;-66
2023/12/09 02:08:39;;;;;;;;;;;;;;;20.67;41.40;100805.06;2072605;28;1532;-66
2023/12/09 02:09:41;;;;;;;;;;;;;;;20.68;41.30;100800.78;2070421;28;1806;-66
2023/12/09 02:10:42;;;;;;;;;;;;;;;20.68;41.49;100806.53;2070083;28;2190;-66
2023/12/09 02:11:50;;;;;;;;;;;;;;;20.66;41.54;100792.81;2069534;28;2102;-66
2023/12/09 02:12:52;;;;;;;;;;;;;;;20.68;41.56;100800.78;2071618;28;2041;-66
2023/12/09 02:13:56;;;;;;;;;;;;;;;20.66;41.39;100800.69;2071065;28;2055;-66
2023/12/09 02:14:58;;;;;;;;;;;;;;;20.66;41.34;100800.69;2070506;28;2110;-66
2023/12/09 02:16:26;;;;;;;;;;;;;;;20.66;41.44;100794.94;2071579;28;2012;-66
2023/12/09 02:17:32;;;;;;;;;;;;;;;20.66;41.39;100809.31;2067413;28;2104;-66
2023/12/09 02:18:33;;;;;;;;;;;;;;;20.65;41.41;100807.84;2068916;28;1631;-66
2023/12/09 02:19:35;;;;;;;;;;;;;;;20.64;41.48;100815.75;2068498;28;1814;-67
2023/12/09 02:20:36;;;;;;;;;;;;;;;20.64;41.44;100806.38;2071227;28;1859;-66
2023/12/09 02:21:57;;;;;;;;;;;;;;;20.64;41.56;100809.25;2071097;28;1885;-67
2023/12/09 02:23:11;;;;;;;;;;;;;;;20.63;41.42;100804.88;2069972;28;2092;-66
2023/12/09 02:24:12;;;;;;;;;;;;;;;20.63;41.37;100807.75;2071780;28;2044;-66
2023/12/09 02:25:13;;;;;;;;;;;;;;;20.63;41.39;100816.38;2068539;28;2082;-66
2023/12/09 02:26:20;;;;;;;;;;;;;;;20.63;41.40;100810.63;2067708;28;1599;-66
2023/12/09 02:27:25;;;;;;;;;;;;;;;20.62;41.46;100803.41;2075699;28;2024;-66
2023/12/09 02:28:27;;;;;;;;;;;;;;;20.62;41.47;100812.78;2075933;28;2403;-66
2023/12/09 02:29:29;;;;;;;;;;;;;;;20.61;41.55;100814.16;2068390;28;2043;-66
2023/12/09 02:30:36;;;;;;;;;;;;;;;20.61;41.47;100814.16;2069200;28;6282;-66
2023/12/09 02:31:37;;;;;;;;;;;;;;;20.62;41.36;100809.16;2069637;28;2122;-66
2023/12/09 02:32:39;;;;;;;;;;;;;;;20.60;41.31;100811.94;2071429;28;1817;-67
2023/12/09 02:33:43;;;;;;;;;;;;;;;20.60;41.64;100811.94;2062594;28;1775;-66
2023/12/09 02:34:44;;;;;;;;;;;;;;;20.59;41.46;100805.44;2070441;28;1868;-66
2023/12/09 02:35:46;;;;;;;;;;;;;;;20.59;41.64;100807.56;2070406;28;2039;-66
2023/12/09 02:36:47;;;;;;;;;;;;;;;20.60;41.50;100806.91;2066895;28;1877;-66
2023/12/09 02:37:51;;;;;;;;;;;;;;;20.60;41.44;100806.19;2070931;28;2062;-65
2023/12/09 02:38:52;;;;;;;;;;;;;;;20.61;41.43;100807.66;2070755;28;1755;-66
2023/12/09 02:39:54;;;;;;;;;;;;;;;20.61;41.54;100801.91;2069968;28;1687;-66
2023/12/09 02:40:56;;;;;;;;;;;;;;;20.60;41.43;100801.16;2078646;28;2100;-66
2023/12/09 02:41:57;;;;;;;;;;;;;;;20.60;41.33;100801.16;2069839;28;2006;-66
2023/12/09 02:42:58;;;;;;;;;;;;;;;20.61;41.46;100808.38;2062930;28;1759;-66
2023/12/09 02:44:00;;;;;;;;;;;;;;;20.62;41.33;100803.41;2070950;28;2124;-66
2023/12/09 02:45:01;;;;;;;;;;;;;;;20.62;41.30;100798.38;2069988;28;2036;-66
2023/12/09 02:46:03;;;;;;;;;;;;;;;20.62;41.41;100804.13;2071530;28;1871;-66
2023/12/09 02:47:04;;;;;;;;;;;;;;;20.62;41.48;100789.75;2067888;28;2153;-66
2023/12/09 02:48:06;;;;;;;;;;;;;;;20.64;41.28;100803.50;2068144;28;1763;-66
2023/12/09 02:49:07;;;;;;;;;;;;;;;20.64;41.30;100806.38;2066862;28;1722;-66
2023/12/09 02:50:09;;;;;;;;;;;;;;;20.64;41.48;100806.38;2068231;28;2220;-66
2023/12/09 02:51:10;;;;;;;;;;;;;;;20.64;41.42;100801.34;2071525;28;1915;-66
2023/12/09 02:52:12;;;;;;;;;;;;;;;20.63;41.39;100799.84;2070003;28;1714;-66
2023/12/09 02:53:14;;;;;;;;;;;;;;;20.63;41.46;100799.13;2067562;28;1679;-72
2023/12/09 02:54:15;;;;;;;;;;;;;;;20.62;41.56;100794.78;2070314;28;2176;-72
2023/12/09 02:55:17;;;;;;;;;;;;;;;20.62;41.45;100791.91;2069461;28;2135;-66
2023/12/09 02:56:18;;;;;;;;;;;;;;;20.61;41.60;100796.88;2067245;28;2083;-73
2023/12/09 02:57:19;;;;;;;;;;;;;;;20.63;41.50;100796.97;2069815;28;2321;-70
2023/12/09 02:58:21;;;;;;;;;;;;;;;20.62;41.58;100789.75;2068942;28;2174;-70
2023/12/09 02:59:22;;;;;;;;;;;;;;;20.62;41.34;100789.00;2067244;28;2060;-70
2023/12/09 03:00:24;;;;;;;;;;;;;;;20.61;41.46;100796.16;2068961;28;5972;-69
2023/12/09 03:01:25;;;;;;;;;;;;;;;20.61;41.54;100799.03;2066713;28;2158;-70
2023/12/09 03:02:27;;;;;;;;;;;;;;;20.60;41.60;100794.69;2068007;28;2183;-70
2023/12/09 03:03:29;;;;;;;;;;;;;;;20.60;41.57;100789.66;2070249;28;1747;-69
2023/12/09 03:04:31;;;;;;;;;;;;;;;20.61;41.51;100799.03;2070370;28;2031;-70
2023/12/09 03:05:32;;;;;;;;;;;;;;;20.60;41.57;100788.91;2068205;28;1727;-70
2023/12/09 03:06:34;;;;;;;;;;;;;;;20.59;41.37;100793.94;2068830;28;1580;-69
2023/12/09 03:07:35;;;;;;;;;;;;;;;20.60;41.35;100797.56;2070605;28;2212;-70
2023/12/09 03:08:36;;;;;;;;;;;;;;;20.60;41.57;100797.56;2068745;28;1675;-69
2023/12/09 03:09:38;;;;;;;;;;;;;;;20.60;41.47;100794.69;2071053;28;1876;-70
2023/12/09 03:10:39;;;;;;;;;;;;;;;20.59;41.51;100793.19;2071009;28;1504;-69
2023/12/09 03:11:41;;;;;;;;;;;;;;;20.59;41.56;100793.94;2069386;28;1914;-70
2023/12/09 03:12:42;;;;;;;;;;;;;;;20.59;41.45;100798.94;2068798;28;2186;-70
2023/12/09 03:13:44;;;;;;;;;;;;;;;20.57;41.62;100795.97;2070697;28;1841;-70
2023/12/09 03:14:45;;;;;;;;;;;;;;;20.58;41.63;100798.19;2070546;28;2041;-69
2023/12/09 03:15:46;;;;;;;;;;;;;;;20.57;41.60;100799.59;2067884;28;1698;-70
2023/12/09 03:16:48;;;;;;;;;;;;;;;20.57;41.50;100807.47;2067346;28;2152;-70
2023/12/09 03:17:49;;;;;;;;;;;;;;;20.56;41.43;100800.97;2070162;28;2442;-69
2023/12/09 03:18:51;;;;;;;;;;;;;;;20.57;41.42;100801.72;2071130;28;1682;-69
2023/12/09 03:19:52;;;;;;;;;;;;;;;20.57;41.50;100802.47;2070030;28;2023;-69
2023/12/09 03:20:54;;;;;;;;;;;;;;;20.57;41.53;100801.72;2065644;28;1845;-70
2023/12/09 03:21:55;;;;;;;;;;;;;;;20.57;41.52;100795.97;2067756;28;1658;-70
2023/12/09 03:22:56;;;;;;;;;;;;;;;20.57;41.58;100802.47;2069862;28;2300;-70
2023/12/09 03:23:58;;;;;;;;;;;;;;;20.59;41.46;100804.69;2070988;28;1771;-70
2023/12/09 03:24:59;;;;;;;;;;;;;;;20.58;41.35;100797.47;2070389;28;2115;-70
2023/12/09 03:26:01;;;;;;;;;;;;;;;20.60;41.41;100794.69;2070354;28;1829;-69
2023/12/09 03:27:02;;;;;;;;;;;;;;;20.60;41.29;100806.91;2067001;28;2278;-69
2023/12/09 03:28:03;;;;;;;;;;;;;;;20.61;41.51;100801.91;2068224;28;1790;-70
2023/12/09 03:29:05;;;;;;;;;;;;;;;20.61;41.34;100801.91;2071122;28;2257;-70
2023/12/09 03:30:06;;;;;;;;;;;;;;;20.62;41.47;100803.41;2065457;28;6203;-69
2023/12/09 03:31:14;;;;;;;;;;;;;;;20.62;41.58;100797.66;2068869;28;1568;-70
2023/12/09 03:32:16;;;;;;;;;;;;;;;20.62;41.45;100797.66;2067941;28;2020;-70
2023/12/09 03:33:17;;;;;;;;;;;;;;;20.63;41.40;100799.13;2069096;28;1683;-70
2023/12/09 03:34:19;;;;;;;;;;;;;;;20.63;41.50;100799.13;2067915;28;1833;-70
2023/12/09 03:35:20;;;;;;;;;;;;;;;20.63;41.49;100799.84;2068410;28;1876;-70
2023/12/09 03:36:22;;;;;;;;;;;;;;;20.62;41.50;100791.91;2071044;28;2067;-70
2023/12/09 03:37:23;;;;;;;;;;;;;;;20.61;41.53;100802.63;2070423;28;2207;-69
2023/12/09 03:38:24;;;;;;;;;;;;;;;20.61;41.41;100799.03;2069668;28;2039;-69
2023/12/09 03:39:26;;;;;;;;;;;;;;;20.61;41.52;100790.41;2066801;28;1944;-69
2023/12/09 03:40:27;;;;;;;;;;;;;;;20.61;41.52;100787.50;2070212;28;2085;-69
2023/12/09 03:41:29;;;;;;;;;;;;;;;20.61;41.38;100790.41;2068489;28;2153;-70
2023/12/09 03:42:30;;;;;;;;;;;;;;;20.60;41.39;100789.66;2070489;28;1635;-70
2023/12/09 03:43:32;;;;;;;;;;;;;;;20.61;41.51;100784.63;2069157;28;2055;-70
2023/12/09 03:44:33;;;;;;;;;;;;;;;20.61;41.56;100796.16;2070220;28;1715;-70
2023/12/09 03:45:34;;;;;;;;;;;;;;;20.60;41.48;100794.69;2070468;28;2014;-70
2023/12/09 03:46:36;;;;;;;;;;;;;;;20.61;41.52;100799.03;2069530;28;2031;-70
2023/12/09 03:47:37;;;;;;;;;;;;;;;20.62;41.36;100800.53;2070897;28;1457;-69
2023/12/09 03:48:39;;;;;;;;;;;;;;;20.61;41.54;100801.91;2070796;28;2163;-70
2023/12/09 03:49:41;;;;;;;;;;;;;;;20.62;41.56;100794.78;2070167;28;1595;-70
2023/12/09 03:50:42;;;;;;;;;;;;;;;20.62;41.64;100804.13;2068970;28;1829;-69
2023/12/09 03:51:43;;;;;;;;;;;;;;;20.63;41.51;100799.13;2070437;28;2050;-70
2023/12/09 03:52:45;;;;;;;;;;;;;;;20.61;41.50;100799.75;2066775;28;1829;-69
2023/12/09 03:53:46;;;;;;;;;;;;;;;20.62;41.46;100807.00;2071545;28;1568;-70
2023/12/09 03:54:48;;;;;;;;;;;;;;;20.63;41.75;100799.84;2068580;28;1869;-70
2023/12/09 03:55:50;;;;;;;;;;;;;;;20.64;41.55;100800.63;2069698;28;2087;-70
2023/12/09 03:56:52;;;;;;;;;;;;;;;20.64;41.50;100803.50;2071035;28;1660;-69
2023/12/09 03:57:53;;;;;;;;;;;;;;;20.64;41.42;100804.22;2069681;28;1608;-70
2023/12/09 03:58:54;;;;;;;;;;;;;;;20.64;41.51;100801.34;2068578;28;2071;-70
2023/12/09 03:59:56;;;;;;;;;;;;;;;20.64;41.57;100807.09;2069545;28;1884;-70
2023/12/09 04:00:58;;;;;;;;;;;;;;;20.66;41.60;100806.44;2069916;28;5954;-69
2023/12/09 04:01:59;;;;;;;;;;;;;;;20.65;41.55;100805.69;2069133;28;2035;-70
2023/12/09 04:03:01;;;;;;;;;;;;;;;20.65;41.75;100807.84;2067731;28;1583;-69
2023/12/09 04:04:04;;;;;;;;;;;;;;;20.64;41.49;100812.84;2069470;28;1981;-70
2023/12/09 04:05:06;;;;;;;;;;;;;;;20.66;41.61;100809.31;2071168;28;2434;-69
2023/12/09 04:06:07;;;;;;;;;;;;;;;20.66;41.81;100809.31;2069660;28;2193;-70
2023/12/09 04:07:09;;;;;;;;;;;;;;;20.66;41.82;100797.81;2071924;28;1778;-70
2023/12/09 04:08:10;;;;;;;;;;;;;;;20.67;41.70;100810.81;2068079;28;2032;-70
2023/12/09 04:09:11;;;;;;;;;;;;;;;20.67;41.70;100805.06;2070424;28;1687;-70
2023/12/09 04:10:13;;;;;;;;;;;;;;;20.67;41.65;100808.66;2070524;28;1556;-70
2023/12/09 04:11:14;;;;;;;;;;;;;;;20.68;41.57;100806.53;2070713;28;2069;-70
2023/12/09 04:12:16;;;;;;;;;;;;;;;20.69;41.78;100819.53;2066100;28;1911;-70
2023/12/09 04:13:17;;;;;;;;;;;;;;;20.68;41.83;100806.53;2069449;28;1762;-69
2023/12/09 04:14:19;;;;;;;;;;;;;;;20.69;41.69;100808.75;2069677;28;2087;-70
2023/12/09 04:15:20;;;;;;;;;;;;;;;20.68;41.55;100806.53;2070151;28;2467;-69
2023/12/09 04:16:21;;;;;;;;;;;;;;;20.68;41.66;100806.53;2068807;28;1802;-70
2023/12/09 04:17:23;;;;;;;;;;;;;;;20.68;41.83;100815.16;2070338;28;1588;-70
2023/12/09 04:18:24;;;;;;;;;;;;;;;20.67;41.62;100808.66;2070352;28;2087;-70
2023/12/09 04:19:26;;;;;;;;;;;;;;;20.67;41.63;100819.44;2069212;28;1782;-69
2023/12/09 04:20:28;;;;;;;;;;;;;;;20.67;41.60;100817.31;2070780;28;1742;-70
2023/12/09 04:21:29;;;;;;;;;;;;;;;20.68;41.53;100809.41;2070299;28;2135;-70
2023/12/09 04:22:31;;;;;;;;;;;;;;;20.67;41.51;100811.53;2071513;28;1817;-70
2023/12/09 04:23:32;;;;;;;;;;;;;;;20.67;41.58;100817.31;2068877;28;1642;-69
2023/12/09 04:24:33;;;;;;;;;;;;;;;20.69;41.51;100816.66;2066292;28;1627;-70
2023/12/09 04:25:35;;;;;;;;;;;;;;;20.67;41.55;100816.56;2069635;28;2081;-69
2023/12/09 04:26:36;;;;;;;;;;;;;;;20.67;41.58;100810.81;2068314;28;1508;-69
2023/12/09 04:27:39;;;;;;;;;;;;;;;20.67;41.67;100805.78;2068851;28;1564;-70
2023/12/09 04:28:40;;;;;;;;;;;;;;;20.67;41.56;100810.81;2070072;28;2177;-69
2023/12/09 04:29:42;;;;;;;;;;;;;;;20.66;41.52;100807.19;2070951;28;2116;-69
2023/12/09 04:30:43;;;;;;;;;;;;;;;20.67;41.52;100807.94;2066121;28;6230;-70
2023/12/09 04:31:45;;;;;;;;;;;;;;;20.66;41.57;100804.31;2068114;28;1850;-69
2023/12/09 04:32:46;;;;;;;;;;;;;;;20.67;41.69;100797.16;2069485;28;2522;-70
2023/12/09 04:33:47;;;;;;;;;;;;;;;20.66;41.68;100804.31;2068607;28;1960;-70
2023/12/09 04:34:49;;;;;;;;;;;;;;;20.67;41.78;100799.31;2071992;28;1798;-70
2023/12/09 04:35:51;;;;;;;;;;;;;;;20.67;41.54;100796.44;2070601;28;2184;-69
2023/12/09 04:36:52;;;;;;;;;;;;;;;20.67;41.55;100799.31;2071857;28;1674;-70
2023/12/09 04:37:53;;;;;;;;;;;;;;;20.67;41.56;100807.94;2069267;28;2028;-70
2023/12/09 04:38:55;;;;;;;;;;;;;;;20.68;41.52;100806.53;2070098;28;1766;-69
2023/12/09 04:39:56;;;;;;;;;;;;;;;20.68;41.56;100803.66;2069554;28;2057;-69
2023/12/09 04:40:58;;;;;;;;;;;;;;;20.68;41.62;100801.53;2069845;28;1791;-69
2023/12/09 04:41:59;;;;;;;;;;;;;;;20.68;41.81;100806.53;2071209;28;1823;-69
2023/12/09 04:43:01;;;;;;;;;;;;;;;20.70;41.61;100809.50;2068018;28;1743;-69
2023/12/09 04:44:02;;;;;;;;;;;;;;;20.70;41.77;100803.75;2069775;28;2066;-70
2023/12/09 04:45:05;;;;;;;;;;;;;;;20.70;41.58;100803.75;2071632;28;1798;-69
2023/12/09 04:46:07;;;;;;;;;;;;;;;20.71;41.91;100808.13;2070414;28;2012;-70
2023/12/09 04:47:08;;;;;;;;;;;;;;;20.71;41.68;100808.13;2071184;28;2181;-70
2023/12/09 04:48:10;;;;;;;;;;;;;;;20.70;41.66;100804.47;2071134;28;2064;-69
2023/12/09 04:49:11;;;;;;;;;;;;;;;20.71;41.72;100805.97;2071844;28;1592;-69
2023/12/09 04:50:13;;;;;;;;;;;;;;;20.70;41.73;100803.75;2069563;28;2016;-70
2023/12/09 04:51:15;;;;;;;;;;;;;;;20.70;41.71;100809.50;2071468;28;2545;-70
2023/12/09 04:52:16;;;;;;;;;;;;;;;20.71;41.76;100805.25;2072593;28;2002;-70
2023/12/09 04:53:18;;;;;;;;;;;;;;;20.71;41.73;100805.25;2071484;28;1834;-70
2023/12/09 04:54:19;;;;;;;;;;;;;;;20.71;41.71;100808.13;2070929;28;2059;-70
2023/12/09 04:55:21;;;;;;;;;;;;;;;20.71;41.83;100805.25;2071008;28;2055;-69
2023/12/09 04:56:22;;;;;;;;;;;;;;;20.70;41.74;100798.72;2072168;28;1774;-70
2023/12/09 04:57:23;;;;;;;;;;;;;;;20.70;41.67;100798.72;2067114;28;1856;-70
2023/12/09 04:58:25;;;;;;;;;;;;;;;20.70;41.72;100804.47;2071756;28;2154;-70
2023/12/09 04:59:26;;;;;;;;;;;;;;;20.70;41.68;100792.22;2072180;28;1852;-69
2023/12/09 05:00:28;;;;;;;;;;;;;;;20.70;41.68;100792.22;2068640;28;6008;-70
2023/12/09 05:01:29;;;;;;;;;;;;;;;20.70;41.60;100792.97;2071588;28;1703;-69
2023/12/09 05:02:31;;;;;;;;;;;;;;;20.70;41.62;100787.22;2070231;28;2089;-70
2023/12/09 05:03:32;;;;;;;;;;;;;;;20.70;41.51;100792.22;2068563;28;1813;-70
2023/12/09 05:04:34;;;;;;;;;;;;;;;20.69;41.61;100782.13;2070757;28;2024;-70
2023/12/09 05:05:35;;;;;;;;;;;;;;;20.70;41.67;100786.47;2068318;28;1552;-69
2023/12/09 05:06:36;;;;;;;;;;;;;;;20.70;41.62;100787.22;2069872;28;1610;-69
2023/12/09 05:07:38;;;;;;;;;;;;;;;20.69;41.78;100785.00;2069255;28;1469;-69
2023/12/09 05:08:42;;;;;;;;;;;;;;;20.70;41.72;100786.47;2069606;28;2123;-69
2023/12/09 05:09:44;;;;;;;;;;;;;;;20.68;41.74;100789.25;2070429;28;1568;-70
2023/12/09 05:10:45;;;;;;;;;;;;;;;20.68;41.59;100783.50;2068894;28;2088;-69
2023/12/09 05:11:46;;;;;;;;;;;;;;;20.67;41.82;100788.53;2070067;28;2108;-70
2023/12/09 05:12:48;;;;;;;;;;;;;;;20.68;41.70;100784.28;2067585;28;1981;-69
2023/12/09 05:13:49;;;;;;;;;;;;;;;20.69;41.69;100790.75;2068843;28;1609;-70
2023/12/09 05:14:51;;;;;;;;;;;;;;;20.68;41.58;100795.78;2070661;28;2058;-70
2023/12/09 05:15:52;;;;;;;;;;;;;;;20.68;41.71;100783.50;2071056;28;2276;-70
2023/12/09 05:16:53;;;;;;;;;;;;;;;20.69;41.66;100779.25;2069228;28;1946;-69
2023/12/09 05:17:55;;;;;;;;;;;;;;;20.68;41.62;100787.16;2069258;28;2118;-69
2023/12/09 05:18:58;;;;;;;;;;;;;;;20.68;41.71;100778.50;2068480;28;1560;-69
2023/12/09 05:19:59;;;;;;;;;;;;;;;20.68;41.65;100784.28;2069022;28;1508;-70
2023/12/09 05:21:01;;;;;;;;;;;;;;;20.70;41.69;100777.84;2071723;28;2370;-70
2023/12/09 05:22:02;;;;;;;;;;;;;;;20.70;41.65;100780.72;2070991;28;2162;-70